sensor_id;sensor_type;location;lat;lon;timestamp;temperature;humidity
37300;DHT22;23184;51.902;12.836;2023-05-13T00:00:22;13.20;99.90
37300;DHT22;23184;51.902;12.836;2023-05-13T00:02:47;13.20;99.90
37300;DHT22;23184;51.902;12.836;2023-05-13T00:05:12;13.20;99.90
37300;DHT22;23184;51.902;12.836;2023-05-13T00:07:38;13.20;99.90
37300;DHT22;23184;51.902;12.836;2023-05-13T00:10:06;13.20;99.90
37300;DHT22;23184;51.902;12.836;2023-05-13T00:12:31;13.10;99.90
37300;DHT22;23184;51.902;12.836;2023-05-13T00:14:57;13.10;99.90
37300;DHT22;23184;51.902;12.836;2023-05-13T00:17:22;13.10;99.90
37300;DHT22;23184;51.902;12.836;2023-05-13T00:19:48;13.10;99.90
37300;DHT22;23184;51.902;12.836;2023-05-13T00:22:13;13.10;99.90
37300;DHT22;23184;51.902;12.836;2023-05-13T00:24:39;13.10;99.90
37300;DHT22;23184;51.902;12.836;2023-05-13T00:27:04;13.00;99.90
37300;DHT22;23184;51.902;12.836;2023-05-13T00:29:30;13.00;99.90
37300;DHT22;23184;51.902;12.836;2023-05-13T00:31:55;13.00;99.90
37300;DHT22;23184;51.902;12.836;2023-05-13T00:34:21;13.00;99.90
37300;DHT22;23184;51.902;12.836;2023-05-13T00:36:46;13.00;99.90
37300;DHT22;23184;51.902;12.836;2023-05-13T00:39:12;12.90;99.90
37300;DHT22;23184;51.902;12.836;2023-05-13T00:41:37;12.80;99.90
37300;DHT22;23184;51.902;12.836;2023-05-13T00:44:03;12.80;99.90
37300;DHT22;23184;51.902;12.836;2023-05-13T00:46:32;12.80;99.90
37300;DHT22;23184;51.902;12.836;2023-05-13T00:48:58;12.70;99.90
37300;DHT22;23184;51.902;12.836;2023-05-13T00:51:24;12.70;99.90
37300;DHT22;23184;51.902;12.836;2023-05-13T00:53:50;12.70;99.90
37300;DHT22;23184;51.902;12.836;2023-05-13T00:56:19;12.70;99.90
37300;DHT22;23184;51.902;12.836;2023-05-13T00:58:46;12.70;99.90
37300;DHT22;23184;51.902;12.836;2023-05-13T01:04:35;12.70;99.90
37300;DHT22;23184;51.902;12.836;2023-05-13T01:07:21;12.60;99.90
37300;DHT22;23184;51.902;12.836;2023-05-13T01:09:59;12.60;99.90
37300;DHT22;23184;51.902;12.836;2023-05-13T01:12:32;12.60;99.90
37300;DHT22;23184;51.902;12.836;2023-05-13T01:15:17;12.50;99.90
37300;DHT22;23184;51.902;12.836;2023-05-13T01:18:03;12.50;99.90
37300;DHT22;23184;51.902;12.836;2023-05-13T01:20:30;12.40;99.90
37300;DHT22;23184;51.902;12.836;2023-05-13T01:22:55;12.40;99.90
37300;DHT22;23184;51.902;12.836;2023-05-13T01:25:22;12.30;99.90
37300;DHT22;23184;51.902;12.836;2023-05-13T01:27:48;12.30;99.90
37300;DHT22;23184;51.902;12.836;2023-05-13T01:30:14;12.20;99.90
37300;DHT22;23184;51.902;12.836;2023-05-13T01:32:40;12.20;99.90
37300;DHT22;23184;51.902;12.836;2023-05-13T01:35:06;12.20;99.90
37300;DHT22;23184;51.902;12.836;2023-05-13T01:37:35;12.20;99.90
37300;DHT22;23184;51.902;12.836;2023-05-13T01:40:01;12.20;99.90
37300;DHT22;23184;51.902;12.836;2023-05-13T01:42:28;12.20;99.90
37300;DHT22;23184;51.902;12.836;2023-05-13T01:44:54;12.20;99.90
37300;DHT22;23184;51.902;12.836;2023-05-13T01:47:19;12.10;99.90
37300;DHT22;23184;51.902;12.836;2023-05-13T01:49:45;12.10;99.90
37300;DHT22;23184;51.902;12.836;2023-05-13T01:52:10;12.10;99.90
37300;DHT22;23184;51.902;12.836;2023-05-13T01:54:36;12.10;99.90
37300;DHT22;23184;51.902;12.836;2023-05-13T01:57:02;12.10;99.90
37300;DHT22;23184;51.902;12.836;2023-05-13T01:59:27;12.00;99.90
37300;DHT22;23184;51.902;12.836;2023-05-13T02:01:53;11.90;99.90
37300;DHT22;23184;51.902;12.836;2023-05-13T02:04:18;11.90;99.90
37300;DHT22;23184;51.902;12.836;2023-05-13T02:06:44;11.90;99.90
37300;DHT22;23184;51.902;12.836;2023-05-13T02:09:09;11.90;99.90
37300;DHT22;23184;51.902;12.836;2023-05-13T02:11:35;11.90;99.90
37300;DHT22;23184;51.902;12.836;2023-05-13T02:14:00;11.80;99.90
37300;DHT22;23184;51.902;12.836;2023-05-13T02:16:26;11.80;99.90
37300;DHT22;23184;51.902;12.836;2023-05-13T02:18:51;11.70;99.90
37300;DHT22;23184;51.902;12.836;2023-05-13T02:21:17;11.70;99.90
37300;DHT22;23184;51.902;12.836;2023-05-13T02:23:42;11.70;99.90
37300;DHT22;23184;51.902;12.836;2023-05-13T02:26:08;11.70;99.90
37300;DHT22;23184;51.902;12.836;2023-05-13T02:28:33;11.70;99.90
37300;DHT22;23184;51.902;12.836;2023-05-13T02:30:59;11.70;99.90
37300;DHT22;23184;51.902;12.836;2023-05-13T02:33:25;11.70;99.90
37300;DHT22;23184;51.902;12.836;2023-05-13T02:35:50;11.70;99.90
37300;DHT22;23184;51.902;12.836;2023-05-13T02:38:16;11.60;99.90
37300;DHT22;23184;51.902;12.836;2023-05-13T02:40:41;11.60;99.90
37300;DHT22;23184;51.902;12.836;2023-05-13T02:43:07;11.60;99.90
37300;DHT22;23184;51.902;12.836;2023-05-13T02:45:32;11.50;99.90
37300;DHT22;23184;51.902;12.836;2023-05-13T02:47:58;11.50;99.90
37300;DHT22;23184;51.902;12.836;2023-05-13T02:50:23;11.50;99.90
37300;DHT22;23184;51.902;12.836;2023-05-13T02:52:49;11.50;99.90
37300;DHT22;23184;51.902;12.836;2023-05-13T02:55:14;11.50;99.90
37300;DHT22;23184;51.902;12.836;2023-05-13T02:57:41;11.50;99.90
37300;DHT22;23184;51.902;12.836;2023-05-13T03:00:07;11.50;99.90
37300;DHT22;23184;51.902;12.836;2023-05-13T03:02:34;11.50;99.90
37300;DHT22;23184;51.902;12.836;2023-05-13T03:05:00;11.40;99.90
37300;DHT22;23184;51.902;12.836;2023-05-13T03:07:25;11.20;99.90
37300;DHT22;23184;51.902;12.836;2023-05-13T03:09:51;11.00;99.90
37300;DHT22;23184;51.902;12.836;2023-05-13T03:12:16;10.80;99.90
37300;DHT22;23184;51.902;12.836;2023-05-13T03:14:42;10.70;99.90
37300;DHT22;23184;51.902;12.836;2023-05-13T03:17:09;10.70;99.90
37300;DHT22;23184;51.902;12.836;2023-05-13T03:19:36;10.70;99.90
37300;DHT22;23184;51.902;12.836;2023-05-13T03:22:02;10.80;99.90
37300;DHT22;23184;51.902;12.836;2023-05-13T03:24:28;10.80;99.90
37300;DHT22;23184;51.902;12.836;2023-05-13T03:26:54;10.80;99.90
37300;DHT22;23184;51.902;12.836;2023-05-13T03:29:20;10.80;99.90
37300;DHT22;23184;51.902;12.836;2023-05-13T03:31:45;10.80;99.90
37300;DHT22;23184;51.902;12.836;2023-05-13T03:34:11;10.90;99.90
37300;DHT22;23184;51.902;12.836;2023-05-13T03:36:36;11.00;99.90
37300;DHT22;23184;51.902;12.836;2023-05-13T03:39:02;11.00;99.90
37300;DHT22;23184;51.902;12.836;2023-05-13T03:41:27;11.00;99.90
37300;DHT22;23184;51.902;12.836;2023-05-13T03:43:53;11.00;99.90
37300;DHT22;23184;51.902;12.836;2023-05-13T03:46:19;11.00;99.90
37300;DHT22;23184;51.902;12.836;2023-05-13T03:48:45;10.90;99.90
37300;DHT22;23184;51.902;12.836;2023-05-13T03:51:11;10.90;99.90
37300;DHT22;23184;51.902;12.836;2023-05-13T03:53:36;10.90;99.90
37300;DHT22;23184;51.902;12.836;2023-05-13T03:56:02;11.00;99.90
37300;DHT22;23184;51.902;12.836;2023-05-13T03:58:28;11.00;99.90
37300;DHT22;23184;51.902;12.836;2023-05-13T04:00:53;11.00;99.90
37300;DHT22;23184;51.902;12.836;2023-05-13T04:03:19;11.10;99.90
37300;DHT22;23184;51.902;12.836;2023-05-13T04:05:45;11.20;99.90
37300;DHT22;23184;51.902;12.836;2023-05-13T04:08:11;11.20;99.90
37300;DHT22;23184;51.902;12.836;2023-05-13T04:10:36;11.30;99.90
37300;DHT22;23184;51.902;12.836;2023-05-13T04:13:02;11.30;99.90
37300;DHT22;23184;51.902;12.836;2023-05-13T04:15:27;11.30;99.90
37300;DHT22;23184;51.902;12.836;2023-05-13T04:17:53;11.40;99.90
37300;DHT22;23184;51.902;12.836;2023-05-13T04:20:18;11.40;99.90
37300;DHT22;23184;51.902;12.836;2023-05-13T04:22:44;11.40;99.90
37300;DHT22;23184;51.902;12.836;2023-05-13T04:25:10;11.50;99.90
37300;DHT22;23184;51.902;12.836;2023-05-13T04:27:35;11.50;99.90
37300;DHT22;23184;51.902;12.836;2023-05-13T04:30:01;11.50;99.90
37300;DHT22;23184;51.902;12.836;2023-05-13T04:32:27;11.50;99.90
37300;DHT22;23184;51.902;12.836;2023-05-13T04:34:53;11.50;99.90
37300;DHT22;23184;51.902;12.836;2023-05-13T04:37:18;11.60;99.90
37300;DHT22;23184;51.902;12.836;2023-05-13T04:39:45;11.70;99.90
37300;DHT22;23184;51.902;12.836;2023-05-13T04:42:11;11.70;99.90
37300;DHT22;23184;51.902;12.836;2023-05-13T04:44:37;11.90;99.90
37300;DHT22;23184;51.902;12.836;2023-05-13T04:47:03;12.00;99.90
37300;DHT22;23184;51.902;12.836;2023-05-13T04:49:28;12.10;99.90
37300;DHT22;23184;51.902;12.836;2023-05-13T04:51:54;12.10;99.90
37300;DHT22;23184;51.902;12.836;2023-05-13T04:54:19;12.20;99.90
37300;DHT22;23184;51.902;12.836;2023-05-13T04:56:45;12.20;99.90
37300;DHT22;23184;51.902;12.836;2023-05-13T04:59:10;12.30;99.90
37300;DHT22;23184;51.902;12.836;2023-05-13T05:01:36;12.20;99.90
37300;DHT22;23184;51.902;12.836;2023-05-13T05:04:01;12.30;99.90
37300;DHT22;23184;51.902;12.836;2023-05-13T05:06:27;12.30;99.90
37300;DHT22;23184;51.902;12.836;2023-05-13T05:08:52;12.30;99.90
37300;DHT22;23184;51.902;12.836;2023-05-13T05:11:18;12.30;99.90
37300;DHT22;23184;51.902;12.836;2023-05-13T05:13:43;12.30;99.90
37300;DHT22;23184;51.902;12.836;2023-05-13T05:16:09;12.30;99.90
37300;DHT22;23184;51.902;12.836;2023-05-13T05:18:35;12.30;99.90
37300;DHT22;23184;51.902;12.836;2023-05-13T05:21:01;12.30;99.90
37300;DHT22;23184;51.902;12.836;2023-05-13T05:23:27;12.30;99.90
37300;DHT22;23184;51.902;12.836;2023-05-13T05:25:52;12.40;99.90
37300;DHT22;23184;51.902;12.836;2023-05-13T05:28:18;12.40;99.90
37300;DHT22;23184;51.902;12.836;2023-05-13T05:30:43;12.50;99.90
37300;DHT22;23184;51.902;12.836;2023-05-13T05:33:09;12.60;99.90
37300;DHT22;23184;51.902;12.836;2023-05-13T05:35:35;12.60;99.90
37300;DHT22;23184;51.902;12.836;2023-05-13T05:38:03;12.70;99.90
37300;DHT22;23184;51.902;12.836;2023-05-13T05:40:30;12.80;99.90
37300;DHT22;23184;51.902;12.836;2023-05-13T05:42:56;12.90;99.90
37300;DHT22;23184;51.902;12.836;2023-05-13T05:45:21;12.90;99.90
37300;DHT22;23184;51.902;12.836;2023-05-13T05:47:47;13.00;99.90
37300;DHT22;23184;51.902;12.836;2023-05-13T05:50:12;13.10;99.90
37300;DHT22;23184;51.902;12.836;2023-05-13T05:52:38;13.20;99.90
37300;DHT22;23184;51.902;12.836;2023-05-13T05:55:03;13.30;99.90
37300;DHT22;23184;51.902;12.836;2023-05-13T05:57:31;13.40;99.90
37300;DHT22;23184;51.902;12.836;2023-05-13T05:59:56;13.50;99.90
37300;DHT22;23184;51.902;12.836;2023-05-13T06:02:22;13.60;99.90
37300;DHT22;23184;51.902;12.836;2023-05-13T06:04:47;13.70;99.90
37300;DHT22;23184;51.902;12.836;2023-05-13T06:07:13;13.80;99.90
37300;DHT22;23184;51.902;12.836;2023-05-13T06:09:38;13.90;99.90
37300;DHT22;23184;51.902;12.836;2023-05-13T06:12:05;14.10;99.90
37300;DHT22;23184;51.902;12.836;2023-05-13T06:14:30;14.20;99.90
37300;DHT22;23184;51.902;12.836;2023-05-13T06:16:56;14.20;99.90
37300;DHT22;23184;51.902;12.836;2023-05-13T06:19:21;14.30;99.90
37300;DHT22;23184;51.902;12.836;2023-05-13T06:21:47;14.50;99.90
37300;DHT22;23184;51.902;12.836;2023-05-13T06:24:13;14.70;99.90
37300;DHT22;23184;51.902;12.836;2023-05-13T06:26:38;14.80;99.90
37300;DHT22;23184;51.902;12.836;2023-05-13T06:29:03;14.90;99.90
37300;DHT22;23184;51.902;12.836;2023-05-13T06:31:29;15.10;99.90
37300;DHT22;23184;51.902;12.836;2023-05-13T06:33:54;15.30;99.90
37300;DHT22;23184;51.902;12.836;2023-05-13T06:36:20;15.40;99.90
37300;DHT22;23184;51.902;12.836;2023-05-13T06:38:45;15.60;99.90
37300;DHT22;23184;51.902;12.836;2023-05-13T06:41:11;15.70;99.90
37300;DHT22;23184;51.902;12.836;2023-05-13T06:43:36;16.00;99.90
37300;DHT22;23184;51.902;12.836;2023-05-13T06:46:03;16.00;99.90
37300;DHT22;23184;51.902;12.836;2023-05-13T06:48:28;16.30;99.90
37300;DHT22;23184;51.902;12.836;2023-05-13T06:50:54;16.60;99.90
37300;DHT22;23184;51.902;12.836;2023-05-13T06:53:19;16.80;99.90
37300;DHT22;23184;51.902;12.836;2023-05-13T06:55:45;17.00;99.90
37300;DHT22;23184;51.902;12.836;2023-05-13T06:58:10;17.10;99.90
37300;DHT22;23184;51.902;12.836;2023-05-13T07:00:36;17.20;99.90
37300;DHT22;23184;51.902;12.836;2023-05-13T07:03:03;17.50;99.90
37300;DHT22;23184;51.902;12.836;2023-05-13T07:05:29;17.60;99.90
37300;DHT22;23184;51.902;12.836;2023-05-13T07:07:55;17.90;99.90
37300;DHT22;23184;51.902;12.836;2023-05-13T07:10:20;18.20;99.90
37300;DHT22;23184;51.902;12.836;2023-05-13T07:12:46;18.50;99.90
37300;DHT22;23184;51.902;12.836;2023-05-13T07:15:11;18.70;97.10
37300;DHT22;23184;51.902;12.836;2023-05-13T07:17:36;18.90;96.00
37300;DHT22;23184;51.902;12.836;2023-05-13T07:20:02;19.20;93.20
37300;DHT22;23184;51.902;12.836;2023-05-13T07:22:27;19.30;91.10
37300;DHT22;23184;51.902;12.836;2023-05-13T07:24:53;19.60;90.60
37300;DHT22;23184;51.902;12.836;2023-05-13T07:27:19;19.70;91.20
37300;DHT22;23184;51.902;12.836;2023-05-13T07:29:46;20.00;88.60
37300;DHT22;23184;51.902;12.836;2023-05-13T07:32:11;20.40;88.40
37300;DHT22;23184;51.902;12.836;2023-05-13T07:34:36;20.50;83.60
37300;DHT22;23184;51.902;12.836;2023-05-13T07:37:02;20.70;82.10
37300;DHT22;23184;51.902;12.836;2023-05-13T07:39:29;20.50;79.50
37300;DHT22;23184;51.902;12.836;2023-05-13T07:41:54;20.80;80.90
37300;DHT22;23184;51.902;12.836;2023-05-13T07:44:20;21.00;76.60
37300;DHT22;23184;51.902;12.836;2023-05-13T07:46:47;21.10;78.40
37300;DHT22;23184;51.902;12.836;2023-05-13T07:49:13;21.20;76.10
37300;DHT22;23184;51.902;12.836;2023-05-13T07:51:38;21.40;74.40
37300;DHT22;23184;51.902;12.836;2023-05-13T07:54:04;21.20;74.20
37300;DHT22;23184;51.902;12.836;2023-05-13T07:56:29;20.90;72.60
37300;DHT22;23184;51.902;12.836;2023-05-13T07:58:56;21.00;72.20
37300;DHT22;23184;51.902;12.836;2023-05-13T08:01:22;20.90;73.70
37300;DHT22;23184;51.902;12.836;2023-05-13T08:03:47;21.10;71.10
37300;DHT22;23184;51.902;12.836;2023-05-13T08:06:13;21.50;69.20
37300;DHT22;23184;51.902;12.836;2023-05-13T08:08:38;21.70;70.10
37300;DHT22;23184;51.902;12.836;2023-05-13T08:11:04;21.90;67.60
37300;DHT22;23184;51.902;12.836;2023-05-13T08:13:30;21.70;69.10
37300;DHT22;23184;51.902;12.836;2023-05-13T08:15:58;21.60;68.20
37300;DHT22;23184;51.902;12.836;2023-05-13T08:18:24;21.80;70.00
37300;DHT22;23184;51.902;12.836;2023-05-13T08:20:50;22.10;67.40
37300;DHT22;23184;51.902;12.836;2023-05-13T08:23:15;22.40;66.00
37300;DHT22;23184;51.902;12.836;2023-05-13T08:25:41;22.60;63.40
37300;DHT22;23184;51.902;12.836;2023-05-13T08:28:06;23.10;65.60
37300;DHT22;23184;51.902;12.836;2023-05-13T08:30:32;23.30;63.30
37300;DHT22;23184;51.902;12.836;2023-05-13T08:32:57;23.50;62.20
37300;DHT22;23184;51.902;12.836;2023-05-13T08:35:23;23.10;63.80
37300;DHT22;23184;51.902;12.836;2023-05-13T08:37:48;23.40;60.10
37300;DHT22;23184;51.902;12.836;2023-05-13T08:40:14;23.70;61.10
37300;DHT22;23184;51.902;12.836;2023-05-13T08:42:41;23.70;58.90
37300;DHT22;23184;51.902;12.836;2023-05-13T08:45:10;23.80;60.30
37300;DHT22;23184;51.902;12.836;2023-05-13T08:47:49;24.30;61.00
37300;DHT22;23184;51.902;12.836;2023-05-13T08:50:16;24.20;57.80
37300;DHT22;23184;51.902;12.836;2023-05-13T08:52:42;24.20;59.20
37300;DHT22;23184;51.902;12.836;2023-05-13T08:55:08;24.10;58.40
37300;DHT22;23184;51.902;12.836;2023-05-13T08:57:35;24.20;56.60
37300;DHT22;23184;51.902;12.836;2023-05-13T09:00:00;24.20;57.80
37300;DHT22;23184;51.902;12.836;2023-05-13T09:02:26;24.20;59.50
37300;DHT22;23184;51.902;12.836;2023-05-13T09:04:53;24.10;57.90
37300;DHT22;23184;51.902;12.836;2023-05-13T09:07:19;24.30;59.00
37300;DHT22;23184;51.902;12.836;2023-05-13T09:09:44;25.00;58.30
37300;DHT22;23184;51.902;12.836;2023-05-13T09:12:10;25.20;55.90
37300;DHT22;23184;51.902;12.836;2023-05-13T09:14:37;25.20;56.80
37300;DHT22;23184;51.902;12.836;2023-05-13T09:17:03;25.20;54.30
37300;DHT22;23184;51.902;12.836;2023-05-13T09:19:29;25.60;56.00
37300;DHT22;23184;51.902;12.836;2023-05-13T09:21:55;25.50;54.70
37300;DHT22;23184;51.902;12.836;2023-05-13T09:24:22;25.10;55.00
37300;DHT22;23184;51.902;12.836;2023-05-13T09:26:49;25.30;54.70
37300;DHT22;23184;51.902;12.836;2023-05-13T09:29:25;25.30;53.90
37300;DHT22;23184;51.902;12.836;2023-05-13T09:31:58;25.90;53.30
37300;DHT22;23184;51.902;12.836;2023-05-13T09:37:04;25.70;52.10
37300;DHT22;23184;51.902;12.836;2023-05-13T09:39:32;25.90;53.70
37300;DHT22;23184;51.902;12.836;2023-05-13T09:42:00;26.10;52.40
37300;DHT22;23184;51.902;12.836;2023-05-13T09:44:26;26.20;51.80
37300;DHT22;23184;51.902;12.836;2023-05-13T09:46:53;26.60;50.50
37300;DHT22;23184;51.902;12.836;2023-05-13T09:49:22;26.90;55.40
37300;DHT22;23184;51.902;12.836;2023-05-13T09:51:47;25.80;51.70
37300;DHT22;23184;51.902;12.836;2023-05-13T09:54:13;25.60;52.60
37300;DHT22;23184;51.902;12.836;2023-05-13T09:56:38;26.10;52.10
37300;DHT22;23184;51.902;12.836;2023-05-13T09:59:04;25.50;51.20
37300;DHT22;23184;51.902;12.836;2023-05-13T10:01:29;25.60;53.60
37300;DHT22;23184;51.902;12.836;2023-05-13T10:03:56;25.10;52.50
37300;DHT22;23184;51.902;12.836;2023-05-13T10:06:25;24.30;54.10
37300;DHT22;23184;51.902;12.836;2023-05-13T10:08:51;25.00;57.20
37300;DHT22;23184;51.902;12.836;2023-05-13T10:11:20;25.70;53.80
37300;DHT22;23184;51.902;12.836;2023-05-13T10:13:49;26.10;52.70
37300;DHT22;23184;51.902;12.836;2023-05-13T10:16:17;26.20;52.70
37300;DHT22;23184;51.902;12.836;2023-05-13T10:18:44;26.20;54.90
37300;DHT22;23184;51.902;12.836;2023-05-13T10:21:11;26.50;52.40
37300;DHT22;23184;51.902;12.836;2023-05-13T10:23:37;25.00;49.80
37300;DHT22;23184;51.902;12.836;2023-05-13T10:26:03;24.10;54.30
37300;DHT22;23184;51.902;12.836;2023-05-13T10:28:29;24.30;56.40
37300;DHT22;23184;51.902;12.836;2023-05-13T10:30:56;25.50;54.90
37300;DHT22;23184;51.902;12.836;2023-05-13T10:33:22;26.70;52.00
37300;DHT22;23184;51.902;12.836;2023-05-13T10:36:26;27.60;52.20
37300;DHT22;23184;51.902;12.836;2023-05-13T10:45:00;28.10;48.40
37300;DHT22;23184;51.902;12.836;2023-05-13T10:47:25;28.10;47.60
37300;DHT22;23184;51.902;12.836;2023-05-13T10:49:52;27.40;50.70
37300;DHT22;23184;51.902;12.836;2023-05-13T10:52:18;28.20;46.70
37300;DHT22;23184;51.902;12.836;2023-05-13T10:55:00;27.90;49.20
37300;DHT22;23184;51.902;12.836;2023-05-13T10:57:28;26.30;49.30
37300;DHT22;23184;51.902;12.836;2023-05-13T11:00:16;26.00;52.70
37300;DHT22;23184;51.902;12.836;2023-05-13T11:02:43;26.90;49.70
37300;DHT22;23184;51.902;12.836;2023-05-13T11:05:08;26.20;48.80
37300;DHT22;23184;51.902;12.836;2023-05-13T11:07:37;25.70;49.00
37300;DHT22;23184;51.902;12.836;2023-05-13T11:10:28;25.30;51.40
37300;DHT22;23184;51.902;12.836;2023-05-13T11:16:00;27.80;51.00
37300;DHT22;23184;51.902;12.836;2023-05-13T11:18:29;28.80;45.20
37300;DHT22;23184;51.902;12.836;2023-05-13T11:21:01;28.90;46.90
37300;DHT22;23184;51.902;12.836;2023-05-13T11:23:28;28.20;47.20
37300;DHT22;23184;51.902;12.836;2023-05-13T11:26:13;26.50;46.90
37300;DHT22;23184;51.902;12.836;2023-05-13T11:29:04;25.80;51.00
37300;DHT22;23184;51.902;12.836;2023-05-13T11:31:45;25.20;48.90
37300;DHT22;23184;51.902;12.836;2023-05-13T11:34:18;24.50;49.60
37300;DHT22;23184;51.902;12.836;2023-05-13T11:36:48;24.50;51.70
37300;DHT22;23184;51.902;12.836;2023-05-13T11:39:16;24.60;50.10
37300;DHT22;23184;51.902;12.836;2023-05-13T11:41:53;24.30;52.80
37300;DHT22;23184;51.902;12.836;2023-05-13T11:44:28;24.40;52.30
37300;DHT22;23184;51.902;12.836;2023-05-13T11:47:04;24.40;53.60
37300;DHT22;23184;51.902;12.836;2023-05-13T11:49:43;24.10;51.20
37300;DHT22;23184;51.902;12.836;2023-05-13T11:52:17;23.90;51.00
37300;DHT22;23184;51.902;12.836;2023-05-13T11:54:48;24.20;51.20
37300;DHT22;23184;51.902;12.836;2023-05-13T11:57:28;25.70;49.20
37300;DHT22;23184;51.902;12.836;2023-05-13T12:02:32;27.70;46.00
37300;DHT22;23184;51.902;12.836;2023-05-13T12:05:01;27.70;48.60
37300;DHT22;23184;51.902;12.836;2023-05-13T12:07:29;28.30;45.90
37300;DHT22;23184;51.902;12.836;2023-05-13T12:09:57;29.30;48.10
37300;DHT22;23184;51.902;12.836;2023-05-13T12:12:23;29.80;43.70
37300;DHT22;23184;51.902;12.836;2023-05-13T12:14:49;29.60;45.10
37300;DHT22;23184;51.902;12.836;2023-05-13T12:17:15;29.70;43.60
37300;DHT22;23184;51.902;12.836;2023-05-13T12:20:18;29.00;44.40
37300;DHT22;23184;51.902;12.836;2023-05-13T12:27:58;26.00;48.30
37300;DHT22;23184;51.902;12.836;2023-05-13T12:30:23;25.60;49.80
37300;DHT22;23184;51.902;12.836;2023-05-13T12:32:49;25.20;50.20
37300;DHT22;23184;51.902;12.836;2023-05-13T12:35:14;25.20;50.30
37300;DHT22;23184;51.902;12.836;2023-05-13T12:37:40;25.10;49.20
37300;DHT22;23184;51.902;12.836;2023-05-13T12:40:12;26.60;51.20
37300;DHT22;23184;51.902;12.836;2023-05-13T12:42:43;27.90;49.80
37300;DHT22;23184;51.902;12.836;2023-05-13T12:45:09;27.90;45.70
37300;DHT22;23184;51.902;12.836;2023-05-13T12:47:51;27.10;47.90
37300;DHT22;23184;51.902;12.836;2023-05-13T12:50:17;27.20;50.20
37300;DHT22;23184;51.902;12.836;2023-05-13T12:52:43;28.10;49.00
37300;DHT22;23184;51.902;12.836;2023-05-13T12:55:08;27.60;47.60
37300;DHT22;23184;51.902;12.836;2023-05-13T12:57:34;28.50;46.30
37300;DHT22;23184;51.902;12.836;2023-05-13T12:59:59;29.70;43.10
37300;DHT22;23184;51.902;12.836;2023-05-13T13:02:25;31.10;45.00
37300;DHT22;23184;51.902;12.836;2023-05-13T13:04:51;32.50;43.90
37300;DHT22;23184;51.902;12.836;2023-05-13T13:07:16;33.20;39.00
37300;DHT22;23184;51.902;12.836;2023-05-13T13:09:42;33.20;38.40
37300;DHT22;23184;51.902;12.836;2023-05-13T13:12:07;33.90;37.40
37300;DHT22;23184;51.902;12.836;2023-05-13T13:14:33;33.70;37.60
37300;DHT22;23184;51.902;12.836;2023-05-13T13:16:58;31.50;39.00
37300;DHT22;23184;51.902;12.836;2023-05-13T13:19:24;29.50;41.10
37300;DHT22;23184;51.902;12.836;2023-05-13T13:21:49;28.20;42.70
37300;DHT22;23184;51.902;12.836;2023-05-13T13:24:15;28.50;44.50
37300;DHT22;23184;51.902;12.836;2023-05-13T13:26:40;29.70;43.20
37300;DHT22;23184;51.902;12.836;2023-05-13T13:29:06;31.30;42.90
37300;DHT22;23184;51.902;12.836;2023-05-13T13:31:32;32.70;41.80
37300;DHT22;23184;51.902;12.836;2023-05-13T13:33:57;33.10;38.10
37300;DHT22;23184;51.902;12.836;2023-05-13T13:36:28;34.00;37.20
37300;DHT22;23184;51.902;12.836;2023-05-13T13:38:54;33.20;38.80
37300;DHT22;23184;51.902;12.836;2023-05-13T13:41:19;31.20;38.50
37300;DHT22;23184;51.902;12.836;2023-05-13T13:43:49;29.80;41.00
37300;DHT22;23184;51.902;12.836;2023-05-13T13:46:15;28.40;41.20
37300;DHT22;23184;51.902;12.836;2023-05-13T13:48:40;27.40;43.80
37300;DHT22;23184;51.902;12.836;2023-05-13T13:51:06;26.70;45.50
37300;DHT22;23184;51.902;12.836;2023-05-13T13:53:31;27.80;44.80
37300;DHT22;23184;51.902;12.836;2023-05-13T13:55:57;29.10;43.10
37300;DHT22;23184;51.902;12.836;2023-05-13T13:58:22;29.50;42.20
37300;DHT22;23184;51.902;12.836;2023-05-13T14:00:48;28.10;41.50
37300;DHT22;23184;51.902;12.836;2023-05-13T14:03:13;27.20;42.40
37300;DHT22;23184;51.902;12.836;2023-05-13T14:05:39;26.30;43.20
37300;DHT22;23184;51.902;12.836;2023-05-13T14:08:04;25.80;46.90
37300;DHT22;23184;51.902;12.836;2023-05-13T14:10:30;25.90;48.20
37300;DHT22;23184;51.902;12.836;2023-05-13T14:12:56;26.90;45.00
37300;DHT22;23184;51.902;12.836;2023-05-13T14:15:21;27.80;44.60
37300;DHT22;23184;51.902;12.836;2023-05-13T14:17:48;28.10;44.90
37300;DHT22;23184;51.902;12.836;2023-05-13T14:20:13;27.30;44.70
37300;DHT22;23184;51.902;12.836;2023-05-13T14:22:39;26.30;44.60
37300;DHT22;23184;51.902;12.836;2023-05-13T14:25:05;25.60;48.10
37300;DHT22;23184;51.902;12.836;2023-05-13T14:27:30;24.70;47.10
37300;DHT22;23184;51.902;12.836;2023-05-13T14:29:58;24.20;48.60
37300;DHT22;23184;51.902;12.836;2023-05-13T14:32:23;23.80;50.60
37300;DHT22;23184;51.902;12.836;2023-05-13T14:34:49;23.20;52.20
37300;DHT22;23184;51.902;12.836;2023-05-13T14:37:14;21.80;62.20
37300;DHT22;23184;51.902;12.836;2023-05-13T14:39:40;20.90;65.50
37300;DHT22;23184;51.902;12.836;2023-05-13T14:42:05;20.50;68.50
37300;DHT22;23184;51.902;12.836;2023-05-13T14:44:31;20.20;69.80
37300;DHT22;23184;51.902;12.836;2023-05-13T14:46:57;19.90;71.80
37300;DHT22;23184;51.902;12.836;2023-05-13T14:49:22;19.80;73.60
37300;DHT22;23184;51.902;12.836;2023-05-13T14:51:48;19.70;73.60
37300;DHT22;23184;51.902;12.836;2023-05-13T14:54:13;19.70;73.90
37300;DHT22;23184;51.902;12.836;2023-05-13T14:56:39;19.60;73.70
37300;DHT22;23184;51.902;12.836;2023-05-13T14:59:05;19.60;73.70
37300;DHT22;23184;51.902;12.836;2023-05-13T15:01:31;19.50;75.20
37300;DHT22;23184;51.902;12.836;2023-05-13T15:03:56;19.50;75.70
37300;DHT22;23184;51.902;12.836;2023-05-13T15:06:23;19.40;76.30
37300;DHT22;23184;51.902;12.836;2023-05-13T15:08:49;19.80;76.40
37300;DHT22;23184;51.902;12.836;2023-05-13T15:11:15;20.20;74.80
37300;DHT22;23184;51.902;12.836;2023-05-13T15:13:40;20.60;72.80
37300;DHT22;23184;51.902;12.836;2023-05-13T15:16:06;20.80;72.90
37300;DHT22;23184;51.902;12.836;2023-05-13T15:18:32;20.80;70.80
37300;DHT22;23184;51.902;12.836;2023-05-13T15:20:57;20.70;71.50
37300;DHT22;23184;51.902;12.836;2023-05-13T15:23:22;20.70;74.70
37300;DHT22;23184;51.902;12.836;2023-05-13T15:25:48;20.90;75.60
37300;DHT22;23184;51.902;12.836;2023-05-13T15:28:14;20.90;69.30
37300;DHT22;23184;51.902;12.836;2023-05-13T15:30:40;20.70;69.10
37300;DHT22;23184;51.902;12.836;2023-05-13T15:33:07;20.60;69.60
37300;DHT22;23184;51.902;12.836;2023-05-13T15:35:33;20.60;71.40